createdAt,value
2019-04-01T03:06:53.625Z,35.90
2019-04-01T03:57:47.197Z,33.93
2019-04-01T04:00:46.144Z,34.17
2019-04-01T04:03:49.352Z,34.03
2019-04-01T04:06:21.183Z,42.97
2019-04-01T04:08:50.057Z,35.90
2019-04-01T04:11:19.008Z,35.57
2019-04-01T04:13:56.345Z,36.37
2019-04-01T04:16:25.211Z,32.63
2019-04-01T04:18:54.093Z,35.93
2019-04-01T04:21:24.130Z,35.47
2019-04-01T04:23:53.364Z,33.50
2019-04-01T04:26:24.274Z,36.57
2019-04-01T04:28:53.102Z,35.50
2019-04-01T04:31:22.534Z,32.57
2019-04-01T04:33:51.395Z,34.10
2019-04-01T04:36:20.291Z,33.63
2019-04-01T04:38:49.226Z,32.43
2019-04-01T04:41:18.389Z,33.87
2019-04-01T04:43:47.341Z,33.07
2019-04-01T04:46:20.999Z,33.67
2019-04-01T04:48:53.325Z,31.50
2019-04-01T04:51:22.280Z,35.03
2019-04-01T04:53:51.184Z,33.57
2019-04-01T04:56:20.092Z,34.63
2019-04-01T04:58:49.122Z,34.10
2019-04-01T05:01:18.078Z,34.67
2019-04-01T05:03:49.448Z,36.40
2019-04-01T05:06:18.421Z,34.63
2019-04-01T05:08:47.346Z,35.83
2019-04-01T05:11:16.360Z,36.03
2019-04-01T05:13:45.263Z,34.23
2019-04-01T05:16:14.239Z,36.63
2019-04-01T05:18:45.692Z,35.40
2019-04-01T05:21:17.459Z,35.20
2019-04-01T05:23:47.284Z,35.90
2019-04-01T05:26:17.625Z,35.23
2019-04-01T05:28:47.188Z,35.50
2019-04-01T05:31:19.788Z,34.40
2019-04-01T05:33:55.654Z,37.53
2019-04-01T05:36:24.664Z,34.53
2019-04-01T05:38:53.915Z,34.17
2019-04-01T05:41:22.881Z,33.10
2019-04-01T05:43:51.841Z,33.37
2019-04-01T05:46:20.700Z,34.10
2019-04-01T05:48:49.583Z,32.57
2019-04-01T05:51:18.442Z,35.50
2019-04-01T05:53:47.494Z,33.77
2019-04-01T05:56:16.363Z,33.70
2019-04-01T05:58:45.248Z,34.63
2019-04-01T06:01:18.511Z,33.17
2019-04-01T06:03:48.441Z,30.47
2019-04-01T06:06:17.391Z,30.37
2019-04-01T06:12:00.929Z,28.87
2019-04-01T06:14:31.812Z,28.07
2019-04-01T06:17:00.981Z,29.03
2019-04-01T06:19:29.952Z,27.07
2019-04-01T06:22:02.125Z,28.97
2019-04-01T06:24:33.461Z,26.97
2019-04-01T06:27:03.995Z,26.93
2019-04-01T06:29:33.128Z,27.00
2019-04-01T06:32:08.148Z,27.17
2019-04-01T06:34:52.367Z,25.80
2019-04-01T06:37:10.890Z,26.63
2019-04-01T06:39:39.913Z,25.90
2019-04-01T06:42:08.753Z,29.97
2019-04-01T06:44:37.695Z,28.70
2019-04-01T06:47:08.063Z,26.60
2019-04-01T06:49:37.028Z,26.67
2019-04-01T06:52:06.008Z,25.53
2019-04-01T06:54:34.864Z,26.00
2019-04-01T06:59:54.989Z,26.10
2019-04-01T07:02:23.886Z,24.43
2019-04-01T07:04:52.806Z,24.13
2019-04-01T07:07:21.692Z,23.80
2019-04-01T07:09:50.937Z,25.23
2019-04-01T07:12:19.916Z,24.37
2019-04-01T07:14:48.882Z,26.33
2019-04-01T07:17:17.804Z,25.87
2019-04-01T07:19:46.721Z,26.00
2019-04-01T07:22:15.891Z,25.00
2019-04-01T07:24:44.761Z,25.73
2019-04-01T07:27:13.621Z,24.23
2019-04-01T07:29:42.514Z,23.80
2019-04-01T07:32:14.428Z,23.03
2019-04-01T07:34:42.036Z,25.73
2019-04-01T07:37:10.915Z,25.73
2019-04-01T07:39:44.178Z,24.60
2019-04-01T07:42:13.295Z,23.53
2019-04-01T07:44:42.243Z,22.33
2019-04-01T07:47:11.097Z,23.50
2019-04-01T07:49:40.126Z,24.90
2019-04-01T07:52:08.977Z,25.03
2019-04-01T07:54:37.961Z,24.23
2019-04-01T07:57:07.112Z,24.60
2019-04-01T07:59:36.220Z,23.50
2019-04-01T08:02:10.717Z,24.17
2019-04-01T08:04:39.608Z,23.83
2019-04-01T08:07:08.533Z,24.27
2019-04-01T08:09:37.445Z,22.10
2019-04-01T08:12:09.234Z,25.13
2019-04-01T08:14:38.115Z,23.37
2019-04-01T08:17:06.961Z,23.10
2019-04-01T08:19:35.920Z,23.10
2019-04-01T08:22:04.956Z,22.97
2019-04-01T08:24:33.793Z,23.67
2019-04-01T08:27:02.548Z,22.40
2019-04-01T08:29:31.340Z,23.23
2019-04-01T08:32:00.180Z,21.97
2019-04-01T08:34:29.060Z,22.97
2019-04-01T08:36:57.816Z,22.27
2019-04-01T08:39:26.604Z,21.47
2019-04-01T08:41:55.358Z,22.87
2019-04-01T08:44:24.285Z,23.33
2019-04-01T08:46:53.029Z,23.40
2019-04-01T08:49:21.835Z,23.90
2019-04-01T08:51:50.621Z,22.27
2019-04-01T08:54:19.586Z,23.00
2019-04-01T08:56:49.262Z,22.77
2019-04-01T08:59:18.113Z,24.33
2019-04-01T09:01:46.956Z,22.80
2019-04-01T09:04:16.143Z,22.13
2019-04-01T09:06:44.983Z,23.30
2019-04-01T09:09:13.762Z,23.00
2019-04-01T09:11:43.114Z,22.83
2019-04-01T09:14:11.980Z,20.57
2019-04-01T09:16:42.139Z,22.63
2019-04-01T09:19:10.921Z,21.90
2019-04-01T09:21:39.671Z,24.33
2019-04-01T09:24:08.439Z,24.10
2019-04-01T09:26:37.197Z,24.30
2019-04-01T10:23:03.968Z,21.60
2019-04-01T10:25:32.742Z,22.87
2019-04-01T10:28:01.530Z,21.17
2019-04-01T10:30:30.408Z,21.70
2019-04-01T10:33:02.129Z,22.10
2019-04-01T10:35:29.629Z,23.57
2019-04-01T10:37:58.371Z,22.13
2019-04-01T10:40:27.177Z,21.50
2019-04-01T10:42:55.995Z,22.37
2019-04-01T10:45:24.793Z,22.30
2019-04-01T10:47:53.588Z,23.47
2019-04-01T10:50:22.595Z,21.27
2019-04-01T10:52:51.464Z,22.27
2019-04-01T10:55:21.264Z,21.50
2019-04-01T10:57:53.729Z,21.53
2019-04-01T11:00:26.977Z,21.27
2019-04-01T11:02:55.828Z,20.03
2019-04-01T11:05:24.844Z,21.20
2019-04-01T11:07:53.857Z,20.00
2019-04-01T11:10:22.887Z,20.47
2019-04-01T11:12:54.261Z,19.97
2019-04-01T11:15:23.164Z,19.73
2019-04-01T11:17:52.669Z,20.30
2019-04-01T11:20:21.777Z,19.77
2019-04-01T11:22:50.660Z,19.70
2019-04-01T11:25:19.568Z,22.30
2019-04-01T11:27:48.428Z,19.90
2019-04-01T11:30:17.697Z,20.17
2019-04-01T11:32:46.676Z,19.60
2019-04-01T11:35:16.264Z,20.10
2019-04-01T11:37:45.422Z,21.77
2019-04-01T11:40:14.539Z,19.63
2019-04-01T11:42:45.080Z,18.83
2019-04-01T11:45:14.146Z,19.07
2019-04-01T11:47:43.106Z,20.73
2019-04-01T11:50:12.031Z,19.43
2019-04-01T11:52:41.011Z,19.87
2019-04-01T11:55:10.170Z,20.27
2019-04-01T11:57:40.541Z,18.90
2019-04-01T12:00:13.281Z,20.17
2019-04-01T12:02:42.493Z,18.50
2019-04-01T12:05:11.442Z,18.95
2019-04-01T12:07:40.279Z,19.07
2019-04-01T12:10:09.388Z,19.73
2019-04-01T12:12:38.294Z,19.53
2019-04-01T12:15:11.343Z,19.90
2019-04-01T12:17:41.408Z,19.63
2019-04-01T12:20:09.463Z,19.83
2019-04-01T12:22:38.394Z,18.93
2019-04-01T12:25:09.215Z,19.23
2019-04-01T12:27:38.197Z,19.60
2019-04-01T12:30:07.222Z,19.70
2019-04-01T12:32:36.147Z,19.87
2019-04-01T12:35:06.076Z,18.77
2019-04-01T12:37:34.880Z,18.87
2019-04-01T12:40:04.745Z,19.40
2019-04-01T12:42:33.650Z,19.97
2019-04-01T12:45:02.529Z,19.97
2019-04-01T12:47:35.700Z,19.07
2019-04-01T12:50:02.004Z,19.33
2019-04-01T12:52:30.873Z,19.47
2019-04-01T12:55:01.109Z,19.07
2019-04-01T12:57:30.095Z,18.73
2019-04-01T12:59:58.938Z,19.47
2019-04-01T13:02:27.838Z,20.13
2019-04-01T13:04:56.706Z,18.43
2019-04-01T13:07:25.487Z,18.33
2019-04-01T13:09:54.351Z,19.30
2019-04-01T13:12:26.901Z,19.00
2019-04-01T13:14:55.515Z,19.77
2019-04-01T13:17:24.247Z,19.27
2019-04-01T13:19:53.134Z,18.00
2019-04-01T13:22:22.594Z,17.37
2019-04-01T13:24:51.434Z,19.07
2019-04-01T13:27:20.434Z,18.10
2019-04-01T13:29:49.276Z,18.63
2019-04-01T13:32:18.124Z,17.77
2019-04-01T13:34:46.952Z,17.50
2019-04-01T13:37:15.818Z,18.27
2019-04-01T13:39:46.270Z,19.30
2019-04-01T13:42:16.773Z,17.40
2019-04-01T13:44:47.664Z,16.20
2019-04-01T13:47:17.804Z,17.13
2019-04-01T13:49:46.648Z,17.03
2019-04-01T13:52:37.485Z,16.27
2019-04-01T13:55:06.580Z,15.67
2019-04-01T13:57:35.491Z,16.50
2019-04-01T14:00:06.347Z,15.87
2019-04-01T14:02:35.143Z,15.93
2019-04-01T14:05:06.908Z,15.43
2019-04-01T14:07:37.434Z,16.10
2019-04-01T14:10:08.198Z,15.10
2019-04-01T14:12:38.705Z,14.53
2019-04-01T14:15:08.333Z,16.03
2019-04-01T14:17:38.395Z,14.50
2019-04-01T14:20:07.478Z,14.95
2019-04-01T14:22:36.387Z,14.90
2019-04-01T14:25:07.650Z,14.37
2019-04-01T14:27:47.807Z,14.20
2019-04-01T14:30:16.645Z,14.50
2019-04-01T14:32:45.508Z,14.63
2019-04-01T14:35:14.377Z,15.20
2019-04-01T14:37:43.287Z,14.30
2019-04-01T14:40:12.126Z,14.67
2019-04-01T14:42:42.093Z,13.43
2019-04-01T14:45:11.096Z,13.67
2019-04-01T14:47:56.059Z,13.27
2019-04-01T14:50:10.972Z,14.40
2019-04-01T14:52:41.194Z,13.93
2019-04-01T14:55:10.275Z,13.00
2019-04-01T14:57:43.011Z,12.93
2019-04-01T15:00:13.721Z,14.40
2019-04-01T15:02:42.511Z,13.87
2019-04-01T15:05:11.620Z,13.47
2019-04-01T15:07:43.148Z,12.70
2019-04-01T15:10:12.165Z,13.13
2019-04-01T15:12:40.960Z,10.77
2019-04-01T15:15:09.914Z,10.63
2019-04-01T15:17:38.828Z,11.47
2019-04-01T15:20:09.386Z,11.97
2019-04-01T15:22:38.194Z,12.63
2019-04-01T15:25:07.725Z,13.60
2019-04-01T15:27:36.634Z,15.07
2019-04-01T15:30:09.138Z,14.57
2019-04-01T15:32:37.985Z,15.50
2019-04-01T15:35:09.800Z,16.60
2019-04-01T15:37:38.666Z,15.37
2019-04-01T15:40:07.880Z,14.73
2019-04-01T15:42:36.749Z,13.60
2019-04-01T15:45:06.370Z,12.37
2019-04-01T15:47:35.476Z,12.30
2019-04-01T15:50:06.286Z,13.63
2019-04-01T15:52:35.142Z,13.90
2019-04-01T15:55:05.434Z,14.47
2019-04-01T15:57:34.266Z,15.37
2019-04-01T16:00:03.401Z,15.00
2019-04-01T16:02:32.422Z,13.27
2019-04-01T16:05:01.253Z,14.13
2019-04-01T16:07:30.019Z,14.27
2019-04-01T16:09:58.770Z,14.40
2019-04-01T16:12:27.551Z,13.20
2019-04-01T16:14:56.371Z,13.80
2019-04-01T16:17:25.178Z,13.83
2019-04-01T16:19:53.994Z,13.87
2019-04-01T16:22:23.320Z,13.87
2019-04-01T16:24:52.162Z,15.03
2019-04-01T16:27:21.049Z,13.57
2019-04-01T16:29:49.934Z,13.97
2019-04-01T16:32:18.779Z,13.87
2019-04-01T16:34:47.647Z,15.47
2019-04-01T16:37:16.485Z,13.03
2019-04-01T16:39:45.372Z,14.83
2019-04-01T16:42:14.245Z,15.23
2019-04-01T16:44:44.098Z,14.10
2019-04-01T16:47:14.506Z,14.90
2019-04-01T16:49:43.563Z,16.20
2019-04-01T16:52:15.265Z,16.50
2019-04-01T16:54:45.878Z,16.77
2019-04-01T16:57:14.857Z,16.10
2019-04-01T16:59:43.743Z,16.23
2019-04-01T17:02:18.183Z,16.10
2019-04-01T17:04:46.275Z,16.80
2019-04-01T17:07:15.351Z,16.63
2019-04-01T17:09:44.186Z,17.60
2019-04-01T17:12:12.970Z,16.50
2019-04-01T17:14:41.812Z,16.40
2019-04-01T17:17:10.652Z,16.37
2019-04-01T17:19:39.510Z,15.03
2019-04-01T17:22:11.260Z,16.27
2019-04-01T17:24:38.784Z,15.57
2019-04-01T17:27:10.564Z,16.97
2019-04-01T17:29:40.433Z,16.90
2019-04-01T17:32:09.308Z,15.43
2019-04-01T17:34:38.153Z,16.37
2019-04-01T17:37:07.138Z,16.73
2019-04-01T17:39:36.105Z,16.83
2019-04-01T17:42:05.524Z,16.63
2019-04-01T17:44:34.439Z,16.17
2019-04-01T17:47:03.299Z,16.23
2019-04-01T17:49:32.174Z,17.80
2019-04-01T17:52:04.219Z,15.67
2019-04-01T17:54:31.564Z,15.70
2019-04-01T17:57:00.412Z,16.47
2019-04-01T17:59:29.258Z,16.03
2019-04-01T18:01:58.121Z,15.77
2019-04-01T18:04:27.047Z,15.60
2019-04-01T18:06:58.258Z,15.77
2019-04-01T18:09:26.447Z,15.07
2019-04-01T18:11:55.507Z,17.47
2019-04-01T18:14:24.402Z,18.13
2019-04-01T18:16:53.220Z,16.43
2019-04-01T18:19:22.101Z,18.90
2019-04-01T18:21:53.290Z,19.50
2019-04-01T18:24:29.064Z,18.70
2019-04-01T18:26:57.913Z,17.30
2019-04-01T18:29:26.863Z,17.03
2019-04-01T18:31:58.868Z,17.93
2019-04-01T18:34:27.935Z,17.20
2019-04-01T18:36:56.859Z,17.67
2019-04-01T18:39:25.868Z,18.50
2019-04-01T18:41:54.721Z,17.57
2019-04-01T18:44:25.279Z,17.70
2019-04-01T18:46:54.239Z,17.67
2019-04-01T18:49:23.099Z,16.90
2019-04-01T18:51:52.016Z,17.97
2019-04-01T18:54:20.893Z,18.77
2019-04-01T18:56:51.796Z,18.23
2019-04-01T18:59:21.215Z,17.73
2019-04-01T19:01:51.422Z,18.13
2019-04-01T19:04:22.113Z,17.87
2019-04-01T19:06:50.968Z,17.83
2019-04-01T19:09:19.882Z,18.47
2019-04-01T19:11:48.708Z,18.43
2019-04-01T19:14:21.805Z,17.10
2019-04-01T19:16:56.488Z,17.43
2019-04-01T19:19:25.423Z,17.03
2019-04-01T19:21:54.229Z,18.43
2019-04-01T19:24:23.041Z,19.53
2019-04-01T19:26:52.238Z,18.77
2019-04-01T19:29:23.445Z,19.67
2019-04-01T19:31:52.414Z,19.73
2019-04-01T19:34:21.369Z,19.10
2019-04-01T19:36:50.235Z,19.27
2019-04-01T19:39:19.136Z,19.57
2019-04-01T19:41:48.111Z,19.80
2019-04-01T19:44:17.879Z,20.60
2019-04-01T19:46:46.750Z,20.20
2019-04-01T19:49:15.611Z,19.63
2019-04-01T19:51:45.733Z,21.10
2019-04-01T19:54:14.584Z,19.77
2019-04-01T19:56:43.456Z,20.80
2019-04-01T19:59:12.368Z,19.47
2019-04-01T20:01:41.279Z,19.87
2019-04-01T20:04:10.105Z,20.47
2019-04-01T20:06:40.869Z,20.63
2019-04-01T20:09:09.523Z,20.10
2019-04-01T20:11:38.399Z,19.23
2019-04-01T20:14:07.270Z,19.43
2019-04-01T20:16:36.193Z,19.73
2019-04-01T20:19:05.430Z,20.47
2019-04-01T20:21:35.371Z,20.63
2019-04-01T20:24:04.250Z,20.10
2019-04-01T20:26:33.145Z,19.37
2019-04-01T20:29:01.982Z,19.83
2019-04-01T20:31:30.845Z,19.70
2019-04-01T20:34:04.102Z,18.43
2019-04-01T20:36:33.441Z,20.43
2019-04-01T20:39:02.309Z,19.40
2019-04-01T20:41:31.176Z,19.70
2019-04-01T20:44:00.016Z,18.73
2019-04-01T20:46:28.816Z,19.60
2019-04-01T20:48:57.692Z,18.13
2019-04-01T20:51:26.553Z,19.73
2019-04-01T20:53:55.392Z,21.10
2019-04-01T20:56:24.257Z,20.20
2019-04-01T20:58:55.776Z,19.30
2019-04-01T21:01:23.731Z,19.47
2019-04-01T21:03:52.573Z,19.97
2019-04-01T21:06:22.068Z,19.20
2019-04-01T21:08:51.171Z,20.53
2019-04-01T21:11:20.066Z,19.77
2019-04-01T21:13:48.886Z,19.57
2019-04-01T21:16:17.703Z,19.40
2019-04-01T21:18:48.002Z,20.83
2019-04-01T21:21:17.144Z,19.47
2019-04-01T21:23:46.122Z,19.23
2019-04-01T21:26:14.891Z,20.63
2019-04-01T21:28:43.783Z,18.90
2019-04-01T21:31:12.550Z,19.30
2019-04-01T21:33:43.100Z,20.63
2019-04-01T21:36:11.933Z,19.33
2019-04-01T21:38:40.810Z,19.07
2019-04-01T21:41:09.653Z,19.47
2019-04-01T21:43:38.543Z,18.33
2019-04-01T21:46:07.377Z,17.70
2019-04-01T21:48:36.158Z,17.83
2019-04-01T21:51:05.020Z,18.70
2019-04-01T21:53:33.862Z,17.67
2019-04-01T21:56:02.693Z,18.60
2019-04-01T21:58:31.560Z,18.70
2019-04-01T22:01:01.958Z,18.10
2019-04-01T22:03:30.883Z,18.83
2019-04-01T22:05:59.710Z,18.50
2019-04-01T22:08:28.572Z,18.33
2019-04-01T22:10:57.467Z,18.37
2019-04-01T22:13:26.383Z,18.07
2019-04-01T22:15:56.245Z,17.27
2019-04-01T22:18:25.042Z,17.37
2019-04-01T22:20:53.863Z,17.23
2019-04-01T22:23:22.788Z,17.53
2019-04-01T22:25:51.653Z,17.60
2019-04-01T22:28:21.238Z,17.97
2019-04-01T22:30:51.004Z,17.73
2019-04-01T22:33:19.881Z,16.53
2019-04-01T22:35:48.733Z,18.47
2019-04-01T22:38:24.858Z,18.43
2019-04-01T22:40:48.095Z,18.43
2019-04-01T22:43:17.011Z,18.87
2019-04-01T22:45:45.881Z,16.97
2019-04-01T22:48:14.724Z,17.00
2019-04-01T22:50:43.576Z,17.10
2019-04-01T22:53:12.417Z,16.97
2019-04-01T22:55:41.341Z,17.57
2019-04-01T22:58:10.172Z,17.83
2019-04-01T23:00:39.052Z,17.80
2019-04-01T23:03:07.877Z,17.37
2019-04-01T23:05:37.333Z,17.33
2019-04-01T23:08:06.571Z,17.47
2019-04-01T23:10:35.532Z,16.27
2019-04-01T23:13:04.368Z,17.67
2019-04-01T23:15:33.248Z,16.23
2019-04-01T23:18:02.008Z,17.60
2019-04-01T23:20:30.904Z,16.20
2019-04-01T23:22:59.721Z,16.17
2019-04-01T23:25:28.645Z,15.70
2019-04-01T23:27:57.524Z,16.73
2019-04-01T23:30:26.376Z,16.43
2019-04-01T23:32:55.228Z,16.83
2019-04-01T23:35:25.155Z,16.87
2019-04-01T23:37:54.754Z,16.83
2019-04-01T23:40:23.622Z,16.10
2019-04-01T23:42:52.504Z,15.50
2019-04-01T23:45:21.542Z,17.40
2019-04-01T23:47:50.391Z,17.47
2019-04-01T23:50:19.173Z,17.13
2019-04-01T23:52:48.050Z,15.13
2019-04-01T23:55:16.854Z,16.33
2019-04-01T23:57:45.685Z,15.40
